Terminal Aerodrome Forecast
Issued by NWS

Home | Current Version | Previous Version | Text Only | Print | Product List | Glossary On
Versions: 1 2 3 4 5 6 7 8 9 10 11 12 13
000
FTUS42 TJSJ 191130
TAFIST
TAF
TIST 191130Z 1912/2012 08007KT P6SM FEW020 SCT035
     FM191400 13012KT P6SM FEW035
     FM191600 12010KT P6SM VCSH SCT030
      AMD NOT SKED=

USA.gov is the U.S. government's official web portal to all federal, state and local government web resources and services.